createdAt,value
2022-12-04T00:01:29.375Z,14.88
2022-12-04T00:04:01.829Z,20.25
2022-12-04T00:06:34.204Z,18.70
2022-12-04T00:09:03.773Z,18.02
2022-12-04T00:11:32.158Z,19.00
2022-12-04T00:14:06.999Z,18.08
2022-12-04T00:16:34.886Z,17.25
2022-12-04T00:19:15.666Z,18.73
2022-12-04T00:21:58.202Z,17.13
2022-12-04T00:24:25.256Z,18.65
2022-12-04T00:26:52.759Z,19.40
2022-12-04T00:29:21.659Z,17.45
2022-12-04T00:31:51.010Z,19.08
2022-12-04T00:34:18.829Z,14.90
2022-12-04T00:36:50.754Z,16.67
2022-12-04T00:39:17.633Z,16.20
2022-12-04T00:41:44.907Z,16.25
2022-12-04T00:44:15.803Z,18.33
2022-12-04T00:46:43.170Z,16.25
2022-12-04T00:49:10.221Z,15.38
2022-12-04T00:51:38.958Z,19.67
2022-12-04T00:54:08.533Z,17.30
2022-12-04T00:56:36.516Z,16.80
2022-12-04T00:59:03.800Z,18.27
2022-12-04T01:01:34.798Z,16.88
2022-12-04T01:04:02.093Z,15.02
2022-12-04T01:06:36.867Z,18.83
2022-12-04T01:20:52.816Z,18.77
2022-12-04T01:23:20.979Z,19.48
2022-12-04T01:34:31.508Z,18.63
2022-12-04T01:36:58.186Z,18.65
2022-12-04T01:39:24.780Z,22.73
2022-12-04T01:41:51.485Z,17.83
2022-12-04T01:45:18.717Z,19.58
2022-12-04T01:47:45.960Z,16.38
2022-12-04T01:50:12.481Z,16.75
2022-12-04T01:52:39.693Z,18.25
2022-12-04T01:55:09.655Z,17.92
2022-12-04T01:57:39.257Z,15.77
2022-12-04T02:00:11.631Z,17.55
2022-12-04T02:02:44.869Z,16.90
2022-12-04T02:05:14.712Z,19.55
2022-12-04T02:07:44.832Z,15.80
2022-12-04T02:10:12.188Z,18.20
2022-12-04T02:13:09.965Z,16.75
2022-12-04T02:15:49.003Z,14.52
2022-12-04T02:18:35.540Z,17.52
2022-12-04T02:21:18.355Z,17.52
2022-12-04T02:24:04.343Z,14.95
2022-12-04T02:26:50.306Z,14.15
2022-12-04T02:29:32.318Z,17.58
2022-12-04T02:32:20.095Z,16.42
2022-12-04T02:34:57.500Z,16.55
2022-12-04T02:37:39.470Z,15.15
2022-12-04T02:40:14.504Z,16.90
2022-12-04T02:42:43.855Z,14.75
2022-12-04T02:45:16.338Z,13.43
2022-12-04T02:47:44.846Z,14.20
2022-12-04T02:50:22.233Z,14.38
2022-12-04T02:53:02.064Z,15.07
2022-12-04T02:55:38.197Z,14.30
2022-12-04T02:58:12.223Z,12.35
2022-12-04T03:00:41.931Z,15.35
2022-12-04T03:03:14.501Z,14.18
2022-12-04T03:06:02.632Z,15.77
2022-12-04T03:08:37.470Z,14.75
2022-12-04T03:11:04.205Z,12.65
2022-12-04T03:14:02.599Z,16.35
2022-12-04T03:16:33.414Z,13.48
2022-12-04T03:19:25.248Z,15.05
2022-12-04T03:21:59.674Z,16.55
2022-12-04T03:24:44.728Z,14.18
2022-12-04T03:27:18.848Z,13.75
2022-12-04T03:30:04.656Z,14.73
2022-12-04T03:32:44.490Z,13.52
2022-12-04T03:35:11.009Z,14.80
2022-12-04T03:38:16.423Z,15.85
2022-12-04T03:40:57.837Z,16.45
2022-12-04T03:43:37.872Z,14.57
2022-12-04T03:46:12.515Z,12.13
2022-12-04T03:49:07.580Z,13.77
2022-12-04T03:51:40.649Z,13.65
2022-12-04T03:54:21.220Z,13.38
2022-12-04T03:56:53.396Z,15.98
2022-12-04T03:59:26.962Z,13.90
2022-12-04T04:01:56.214Z,15.88
2022-12-04T04:04:34.435Z,15.32
2022-12-04T04:07:34.855Z,13.10
2022-12-04T04:10:08.534Z,12.88
2022-12-04T04:12:42.646Z,13.88
2022-12-04T04:15:34.409Z,13.70
2022-12-04T04:18:20.368Z,15.35
2022-12-04T04:21:16.621Z,13.32
2022-12-04T04:24:05.238Z,14.50
2022-12-04T04:26:37.200Z,12.95
2022-12-04T04:29:03.958Z,13.23
2022-12-04T04:31:38.763Z,13.73
2022-12-04T04:34:14.835Z,12.48
2022-12-04T04:36:59.923Z,13.88
2022-12-04T04:40:00.383Z,13.13
2022-12-04T04:42:53.994Z,15.60
2022-12-04T04:45:30.662Z,15.52
2022-12-04T04:48:09.862Z,13.75
2022-12-04T04:50:38.674Z,13.73
2022-12-04T04:53:10.812Z,12.70
2022-12-04T04:55:38.421Z,12.18
2022-12-04T04:58:11.268Z,13.30
2022-12-04T05:00:38.648Z,11.80
2022-12-04T05:03:05.550Z,14.43
2022-12-04T05:05:32.217Z,15.13
2022-12-04T05:07:58.916Z,12.88
2022-12-04T05:10:28.236Z,13.35
2022-12-04T05:12:54.970Z,13.77
2022-12-04T05:15:22.013Z,11.48
2022-12-04T05:17:48.769Z,12.45
2022-12-04T05:20:15.540Z,12.77
2022-12-04T05:22:42.220Z,10.85
2022-12-04T05:25:09.023Z,11.63
2022-12-04T05:27:35.948Z,13.35
2022-12-04T05:30:02.695Z,11.32
2022-12-04T05:32:29.759Z,13.13
2022-12-04T05:34:57.450Z,12.05
2022-12-04T05:37:25.200Z,11.00
2022-12-04T05:39:57.536Z,11.85
2022-12-04T05:42:24.556Z,12.90
2022-12-04T05:44:51.224Z,12.32
2022-12-04T05:47:18.092Z,12.30
2022-12-04T05:49:45.046Z,11.82
2022-12-04T05:52:11.680Z,10.80
2022-12-04T05:54:38.595Z,13.75
2022-12-04T05:57:08.514Z,12.85
2022-12-04T05:59:35.666Z,11.60
2022-12-04T06:02:02.610Z,13.02
2022-12-04T06:04:31.720Z,11.73
2022-12-04T06:06:58.631Z,12.73
2022-12-04T06:09:25.644Z,13.75
2022-12-04T06:11:52.483Z,12.63
2022-12-04T06:14:19.336Z,13.13
2022-12-04T06:16:47.255Z,12.02
2022-12-04T06:19:16.522Z,12.55
2022-12-04T06:21:47.420Z,14.52
2022-12-04T06:27:04.105Z,11.25
2022-12-04T06:29:29.010Z,13.60
2022-12-04T06:31:55.864Z,11.20
2022-12-04T06:34:24.994Z,14.25
2022-12-04T06:36:51.789Z,10.93
2022-12-04T06:39:19.293Z,11.23
2022-12-04T06:41:47.489Z,13.02
2022-12-04T06:44:15.408Z,12.40
2022-12-04T06:46:46.790Z,11.30
2022-12-04T06:49:14.115Z,13.52
2022-12-04T06:51:42.985Z,12.60
2022-12-04T06:54:13.461Z,12.00
2022-12-04T06:56:40.004Z,12.05
2022-12-04T06:59:06.625Z,13.50
2022-12-04T07:01:37.413Z,12.65
2022-12-04T07:06:36.056Z,12.07
2022-12-04T07:09:17.245Z,12.63
2022-12-04T07:11:45.062Z,11.68
2022-12-04T07:14:13.423Z,12.63
2022-12-04T07:16:42.166Z,14.07
2022-12-04T07:19:13.940Z,12.05
2022-12-04T07:21:41.658Z,15.20
2022-12-04T07:24:08.424Z,12.60
2022-12-04T07:26:36.806Z,12.90
2022-12-04T07:29:03.403Z,10.07
2022-12-04T07:31:30.554Z,12.85
2022-12-04T07:33:57.930Z,12.93
2022-12-04T07:36:26.015Z,11.10
2022-12-04T07:38:54.251Z,11.00
2022-12-04T07:41:21.706Z,12.27
2022-12-04T07:43:48.283Z,11.48
2022-12-04T07:46:17.969Z,13.00
2022-12-04T07:48:45.007Z,10.18
2022-12-04T07:51:14.181Z,11.45
2022-12-04T07:53:43.903Z,12.95
2022-12-04T07:56:12.021Z,12.03
2022-12-04T07:58:39.668Z,12.52
2022-12-04T08:01:07.744Z,10.18
2022-12-04T08:03:34.463Z,10.40
2022-12-04T08:06:02.563Z,10.93
2022-12-04T08:08:29.684Z,13.48
2022-12-04T08:10:56.643Z,13.63
2022-12-04T08:13:23.577Z,11.18
2022-12-04T08:15:52.237Z,12.40
2022-12-04T08:18:19.499Z,11.38
2022-12-04T08:20:46.258Z,12.05
2022-12-04T08:23:13.012Z,12.18
2022-12-04T08:25:40.565Z,12.63
2022-12-04T08:28:07.655Z,10.82
2022-12-04T08:30:35.724Z,9.70
2022-12-04T08:33:05.524Z,12.00
2022-12-04T08:35:32.304Z,11.25
2022-12-04T08:37:58.835Z,10.43
2022-12-04T08:40:25.447Z,12.35
2022-12-04T08:42:52.126Z,11.73
2022-12-04T08:45:18.783Z,11.85
2022-12-04T08:47:49.303Z,11.57
2022-12-04T08:50:18.844Z,9.90
2022-12-04T08:52:47.560Z,11.43
2022-12-04T08:55:14.089Z,12.95
2022-12-04T08:57:40.792Z,11.65
2022-12-04T09:00:08.126Z,10.45
2022-12-04T09:02:36.331Z,14.20
2022-12-04T09:05:03.079Z,12.38
2022-12-04T09:07:29.754Z,11.25
2022-12-04T09:09:56.886Z,12.50
2022-12-04T09:12:23.795Z,11.32
2022-12-04T09:14:50.354Z,10.82
2022-12-04T09:17:16.962Z,10.68
2022-12-04T09:19:43.592Z,11.05
2022-12-04T09:22:10.928Z,12.63
2022-12-04T09:24:37.557Z,10.48
2022-12-04T09:27:04.260Z,10.80
2022-12-04T09:29:31.067Z,10.63
2022-12-04T09:31:57.776Z,11.75
2022-12-04T09:34:24.298Z,11.98
2022-12-04T09:36:50.883Z,10.13
2022-12-04T09:39:17.606Z,11.30
2022-12-04T09:42:02.594Z,11.85
2022-12-04T09:44:59.283Z,10.13
2022-12-04T09:47:32.122Z,9.90
2022-12-04T09:50:20.599Z,10.80
2022-12-04T09:53:02.327Z,10.30
2022-12-04T09:55:34.215Z,12.60
2022-12-04T09:58:06.661Z,11.07
2022-12-04T10:00:38.684Z,11.98
2022-12-04T10:03:12.308Z,10.52
2022-12-04T10:05:49.809Z,11.07
2022-12-04T10:08:20.976Z,9.20
2022-12-04T10:11:06.390Z,10.30
2022-12-04T10:14:10.747Z,10.07
2022-12-04T10:16:54.959Z,9.80
2022-12-04T10:19:44.923Z,11.60
2022-12-04T10:22:11.356Z,11.85
2022-12-04T10:24:52.395Z,9.63
2022-12-04T10:27:29.345Z,10.98
2022-12-04T10:30:02.341Z,12.07
2022-12-04T10:32:32.206Z,9.27
2022-12-04T10:35:30.391Z,10.07
2022-12-04T10:38:02.416Z,10.63
2022-12-04T10:40:42.566Z,11.13
2022-12-04T10:43:26.716Z,14.15
2022-12-04T10:45:53.420Z,10.60
2022-12-04T10:48:32.547Z,9.57
2022-12-04T10:50:59.440Z,11.88
2022-12-04T10:53:31.699Z,9.57
2022-12-04T10:56:23.075Z,9.52
2022-12-04T10:58:57.851Z,9.70
2022-12-04T11:01:24.994Z,11.25
2022-12-04T11:04:02.335Z,12.25
2022-12-04T11:06:30.435Z,10.88
2022-12-04T11:08:59.585Z,8.35
2022-12-04T11:11:34.760Z,10.20
2022-12-04T11:14:05.341Z,10.02
2022-12-04T11:16:39.882Z,10.95
2022-12-04T11:19:26.121Z,9.23
2022-12-04T11:22:00.330Z,9.05
2022-12-04T11:24:40.279Z,10.38
2022-12-04T11:27:16.056Z,10.23
2022-12-04T11:29:45.726Z,9.27
2022-12-04T11:32:32.446Z,10.55
2022-12-04T11:35:23.544Z,8.40
2022-12-04T11:37:57.920Z,9.40
2022-12-04T11:40:26.630Z,9.82
2022-12-04T11:43:02.349Z,9.73
2022-12-04T11:45:32.411Z,9.80
2022-12-04T11:48:18.673Z,10.90
2022-12-04T11:50:48.307Z,9.50
2022-12-04T11:53:33.436Z,7.95
2022-12-04T11:56:13.216Z,9.00
2022-12-04T11:58:46.473Z,8.80
2022-12-04T12:01:28.292Z,9.10
2022-12-04T12:04:25.460Z,8.95
2022-12-04T12:07:14.084Z,8.98
2022-12-04T12:10:08.741Z,9.85
2022-12-04T12:13:08.915Z,9.45
2022-12-04T12:15:54.423Z,8.60
2022-12-04T12:18:46.900Z,9.63
2022-12-04T12:21:54.862Z,12.15
2022-12-04T12:24:29.989Z,9.25
2022-12-04T12:27:24.679Z,11.13
2022-12-04T12:30:02.991Z,10.05
2022-12-04T12:33:11.436Z,9.70
2022-12-04T12:36:07.124Z,10.55
2022-12-04T12:38:47.075Z,12.90
2022-12-04T12:41:19.263Z,10.20
2022-12-04T12:43:55.116Z,11.80
2022-12-04T12:46:52.998Z,9.35
2022-12-04T12:49:44.481Z,10.52
2022-12-04T12:52:26.357Z,10.23
2022-12-04T12:55:03.877Z,11.85
2022-12-04T12:57:38.205Z,9.90
2022-12-04T13:00:14.028Z,11.45
2022-12-04T13:03:00.261Z,11.23
2022-12-04T13:06:04.883Z,10.20
2022-12-04T13:08:40.917Z,9.85
2022-12-04T13:11:14.477Z,10.63
2022-12-04T13:13:47.777Z,11.00
2022-12-04T13:16:20.663Z,11.93
2022-12-04T13:19:18.183Z,14.35
2022-12-04T13:21:54.381Z,9.95
2022-12-04T13:24:52.162Z,11.43
2022-12-04T13:27:53.295Z,10.43
2022-12-04T13:32:54.522Z,9.95
2022-12-04T13:35:51.119Z,10.40
2022-12-04T13:38:43.966Z,11.43
2022-12-04T13:41:16.993Z,10.20
2022-12-04T13:43:44.118Z,10.80
2022-12-04T13:46:20.002Z,10.02
2022-12-04T13:49:25.084Z,12.82
2022-12-04T13:51:53.044Z,11.57
2022-12-04T13:54:23.956Z,11.32
2022-12-04T13:59:28.148Z,10.30
2022-12-04T14:02:01.275Z,12.65
2022-12-04T14:04:51.757Z,11.25
2022-12-04T14:07:31.284Z,12.38
2022-12-04T14:10:04.825Z,10.63
2022-12-04T14:12:49.083Z,12.93
2022-12-04T14:15:22.538Z,10.52
2022-12-04T14:18:07.626Z,11.02
2022-12-04T14:20:35.192Z,12.70
2022-12-04T14:23:09.380Z,14.02
2022-12-04T14:25:39.348Z,12.68
2022-12-04T14:28:24.808Z,10.55
2022-12-04T14:31:10.206Z,13.23
2022-12-04T14:33:47.398Z,12.02
2022-12-04T14:36:42.224Z,12.15
2022-12-04T14:39:30.749Z,15.18
2022-12-04T14:42:40.019Z,12.45
2022-12-04T14:45:20.942Z,12.70
2022-12-04T14:48:24.588Z,13.27
2022-12-04T14:51:03.634Z,14.75
2022-12-04T14:54:00.581Z,12.40
2022-12-04T14:57:06.475Z,12.60
2022-12-04T14:59:55.896Z,14.25
2022-12-04T15:02:38.740Z,14.38
2022-12-04T15:05:10.996Z,13.88
2022-12-04T15:07:51.777Z,13.45
2022-12-04T15:10:41.548Z,11.73
2022-12-04T15:13:11.244Z,14.27
2022-12-04T15:15:44.602Z,14.00
2022-12-04T15:18:16.682Z,15.70
2022-12-04T15:20:49.400Z,15.18
2022-12-04T15:23:37.987Z,18.75
2022-12-04T15:26:21.182Z,14.93
2022-12-04T15:28:50.572Z,14.00
2022-12-04T15:31:43.473Z,14.35
2022-12-04T15:34:15.716Z,16.17
2022-12-04T15:37:14.003Z,14.52
2022-12-04T15:39:41.148Z,13.80
2022-12-04T15:42:23.143Z,14.75
2022-12-04T15:45:01.567Z,14.98
2022-12-04T15:47:42.580Z,14.38
2022-12-04T15:50:17.294Z,13.73
2022-12-04T15:52:50.225Z,14.25
2022-12-04T15:55:19.282Z,15.27
2022-12-04T15:57:54.846Z,16.58
2022-12-04T16:00:22.624Z,15.18
2022-12-04T16:02:49.931Z,14.43
2022-12-04T16:05:22.400Z,14.50
2022-12-04T16:07:54.643Z,15.40
2022-12-04T16:10:26.583Z,14.38
2022-12-04T16:12:55.296Z,16.33
2022-12-04T16:15:36.171Z,15.25
2022-12-04T16:20:30.326Z,18.83
2022-12-04T16:22:57.211Z,15.02
2022-12-04T16:25:26.987Z,15.13
2022-12-04T16:28:01.472Z,17.17
2022-12-04T16:30:31.816Z,16.25
2022-12-04T16:32:58.366Z,15.55
2022-12-04T16:35:25.052Z,14.80
2022-12-04T16:37:51.744Z,16.63
2022-12-04T16:40:18.453Z,18.75
2022-12-04T16:42:45.184Z,16.10
2022-12-04T16:45:31.790Z,16.83
2022-12-04T16:48:01.484Z,17.17
2022-12-04T16:50:28.319Z,17.77
2022-12-04T16:52:55.221Z,19.52
2022-12-04T16:55:30.965Z,23.50
2022-12-04T16:57:59.629Z,21.27
2022-12-04T17:00:28.836Z,22.10
2022-12-04T17:03:07.776Z,20.65
2022-12-04T17:05:37.133Z,19.70
2022-12-04T17:08:06.449Z,20.38
2022-12-04T17:10:33.416Z,19.75
2022-12-04T17:13:05.402Z,22.23
2022-12-04T17:15:32.266Z,17.17
2022-12-04T17:18:03.680Z,21.05
2022-12-04T17:20:34.195Z,18.17
2022-12-04T17:23:00.934Z,21.08
2022-12-04T17:25:27.726Z,19.75
2022-12-04T17:27:54.434Z,20.42
2022-12-04T17:30:21.212Z,17.42
2022-12-04T17:32:49.200Z,17.17
2022-12-04T17:35:18.683Z,21.08
2022-12-04T17:37:45.581Z,20.38
2022-12-04T17:40:14.348Z,20.13
2022-12-04T17:42:42.334Z,18.02
2022-12-04T17:45:12.102Z,19.40
2022-12-04T17:47:40.939Z,17.10
2022-12-04T17:50:12.342Z,15.63
2022-12-04T17:52:45.315Z,17.02
2022-12-04T17:55:12.062Z,20.70
2022-12-04T17:57:38.725Z,19.75
2022-12-04T18:00:06.116Z,19.55
2022-12-04T18:02:32.809Z,19.90
2022-12-04T18:04:59.483Z,20.52
2022-12-04T18:07:26.099Z,20.85
2022-12-04T18:09:52.702Z,18.73
2022-12-04T18:12:21.858Z,18.58
2022-12-04T18:14:48.598Z,17.55
2022-12-04T18:17:17.477Z,18.95
2022-12-04T18:19:44.066Z,20.30
2022-12-04T18:22:10.670Z,19.80
2022-12-04T18:24:46.939Z,17.58
2022-12-04T18:27:13.768Z,17.73
2022-12-04T18:29:40.484Z,16.30
2022-12-04T18:32:10.294Z,17.77
2022-12-04T18:34:39.433Z,19.30
2022-12-04T18:37:06.238Z,17.95
2022-12-04T18:39:32.902Z,22.27
2022-12-04T18:41:59.507Z,23.88
2022-12-04T18:44:26.482Z,26.33
2022-12-04T18:46:57.754Z,27.30
2022-12-04T18:49:34.640Z,24.10
2022-12-04T18:52:01.328Z,27.38
2022-12-04T18:54:28.021Z,26.05
2022-12-04T18:57:01.929Z,23.05
2022-12-04T18:59:29.193Z,25.25
2022-12-04T19:01:56.025Z,26.25
2022-12-04T19:04:25.856Z,26.55
2022-12-04T19:06:56.584Z,23.43
2022-12-04T19:10:02.161Z,21.10
2022-12-04T19:12:15.520Z,25.33
2022-12-04T19:14:42.332Z,24.08
2022-12-04T19:17:09.122Z,23.15
2022-12-04T19:19:46.718Z,22.50
2022-12-04T19:22:28.546Z,28.85
2022-12-04T19:25:17.057Z,26.33
2022-12-04T19:27:46.722Z,24.77
2022-12-04T19:30:20.888Z,25.33
2022-12-04T19:33:04.004Z,24.08
2022-12-04T19:35:34.729Z,33.00
2022-12-04T19:38:01.435Z,29.63
2022-12-04T19:40:28.407Z,26.30
2022-12-04T19:43:01.087Z,30.55
2022-12-04T19:45:29.547Z,30.88
2022-12-04T19:47:56.280Z,32.10
2022-12-04T19:50:25.343Z,30.98
2022-12-04T19:52:52.023Z,32.95
2022-12-04T19:55:18.896Z,29.90
2022-12-04T19:57:45.601Z,33.67
2022-12-04T20:00:12.887Z,29.13
2022-12-04T20:02:39.801Z,29.08
2022-12-04T20:05:09.022Z,29.52
2022-12-04T20:07:35.773Z,33.38
2022-12-04T20:10:02.497Z,27.92
2022-12-04T20:12:37.412Z,28.75
2022-12-04T20:15:04.612Z,26.60
2022-12-04T20:17:31.413Z,28.35
2022-12-04T20:19:58.408Z,31.63
2022-12-04T20:22:25.582Z,28.48
2022-12-04T20:24:52.575Z,27.65
2022-12-04T20:27:22.296Z,28.13
2022-12-04T20:29:49.042Z,28.70
2022-12-04T20:32:15.645Z,27.13
2022-12-04T20:34:43.974Z,26.60
2022-12-04T20:37:10.871Z,24.48
2022-12-04T20:39:37.783Z,25.77
2022-12-04T20:42:04.381Z,23.42
2022-12-04T20:44:32.952Z,27.55
2022-12-04T20:46:59.569Z,25.45
2022-12-04T20:49:26.175Z,25.77
2022-12-04T20:51:52.724Z,25.42
2022-12-04T20:54:21.182Z,26.38
2022-12-04T20:56:49.244Z,24.83
2022-12-04T20:59:18.179Z,28.20
2022-12-04T21:01:45.040Z,30.02
2022-12-04T21:04:13.309Z,28.85
2022-12-04T21:06:41.785Z,30.23
2022-12-04T21:09:12.697Z,26.17
2022-12-04T21:11:42.125Z,28.83
2022-12-04T21:14:45.527Z,28.80
2022-12-04T21:17:18.515Z,30.05
2022-12-04T21:19:46.853Z,32.05
2022-12-04T21:22:13.809Z,31.05
2022-12-04T21:24:45.202Z,26.17
2022-12-04T21:27:17.151Z,30.73
2022-12-04T21:29:45.699Z,32.20
2022-12-04T21:32:12.277Z,31.83
2022-12-04T21:34:38.912Z,31.55
2022-12-04T21:37:05.686Z,28.67
2022-12-04T21:39:32.694Z,28.45
2022-12-04T21:42:17.824Z,31.52
2022-12-04T21:44:44.482Z,31.38
2022-12-04T21:47:11.241Z,27.77
2022-12-04T21:49:37.924Z,31.92
2022-12-04T21:52:04.750Z,26.13
2022-12-04T21:54:31.531Z,33.75
2022-12-04T21:56:58.358Z,27.05
2022-12-04T21:59:25.951Z,28.48
2022-12-04T22:01:53.512Z,25.75
2022-12-04T22:04:21.137Z,23.63
2022-12-04T22:06:47.851Z,28.48
2022-12-04T22:09:14.775Z,28.90
2022-12-04T22:11:42.722Z,25.35
2022-12-04T22:14:12.994Z,32.92
2022-12-04T22:16:45.508Z,27.25
2022-12-04T22:19:18.475Z,27.70
2022-12-04T22:21:45.680Z,26.50
2022-12-04T22:24:12.385Z,28.33
2022-12-04T22:27:05.748Z,25.67
2022-12-04T22:32:21.922Z,26.85
2022-12-04T22:34:49.336Z,23.85
2022-12-04T22:37:19.418Z,27.40
2022-12-04T22:39:48.775Z,25.13
2022-12-04T22:42:18.886Z,25.48
2022-12-04T22:44:45.819Z,28.70
2022-12-04T22:47:14.742Z,28.45
2022-12-04T22:49:41.573Z,26.67
2022-12-04T22:52:08.314Z,24.17
2022-12-04T22:54:35.283Z,24.77
2022-12-04T22:57:02.005Z,28.10
2022-12-04T22:59:28.952Z,26.52
2022-12-04T23:01:55.792Z,28.80
2022-12-04T23:04:25.072Z,24.63
2022-12-04T23:07:10.413Z,26.52
2022-12-04T23:09:45.102Z,26.23
2022-12-04T23:12:15.173Z,27.52
2022-12-04T23:14:42.062Z,20.70
2022-12-04T23:17:09.248Z,22.00
2022-12-04T23:19:36.529Z,24.25
2022-12-04T23:22:05.315Z,26.92
2022-12-04T23:24:39.082Z,27.25
2022-12-04T23:27:09.112Z,24.30
2022-12-04T23:29:53.182Z,23.58
2022-12-04T23:32:23.092Z,23.25
2022-12-04T23:34:53.224Z,31.17
2022-12-04T23:37:23.384Z,24.23
2022-12-04T23:39:50.545Z,26.33
2022-12-04T23:42:19.821Z,25.85
2022-12-04T23:44:53.263Z,26.50
2022-12-04T23:47:20.218Z,22.35
2022-12-04T23:49:47.052Z,22.00
2022-12-04T23:52:13.794Z,23.55
2022-12-04T23:54:42.871Z,24.52
2022-12-04T23:57:12.612Z,26.08
2022-12-04T23:59:39.503Z,27.55
